sensor_id;sensor_type;location;lat;lon;timestamp;P1;durP1;ratioP1;P2;durP2;ratioP2
35803;SDS011;21924;51.934;7.414;2023-12-29T00:02:31;8.70;;;2.70;;
35803;SDS011;21924;51.934;7.414;2023-12-29T00:05:15;8.93;;;3.05;;
35803;SDS011;21924;51.934;7.414;2023-12-29T00:07:59;9.02;;;3.33;;
35803;SDS011;21924;51.934;7.414;2023-12-29T00:10:44;10.43;;;4.35;;
35803;SDS011;21924;51.934;7.414;2023-12-29T00:13:28;12.43;;;3.65;;
35803;SDS011;21924;51.934;7.414;2023-12-29T00:16:12;11.30;;;3.25;;
35803;SDS011;21924;51.934;7.414;2023-12-29T00:18:57;6.97;;;3.63;;
35803;SDS011;21924;51.934;7.414;2023-12-29T00:21:41;14.60;;;3.55;;
35803;SDS011;21924;51.934;7.414;2023-12-29T00:24:26;9.15;;;3.72;;
35803;SDS011;21924;51.934;7.414;2023-12-29T00:27:10;8.23;;;3.20;;
35803;SDS011;21924;51.934;7.414;2023-12-29T00:29:54;11.70;;;2.97;;
35803;SDS011;21924;51.934;7.414;2023-12-29T00:32:38;8.95;;;3.28;;
35803;SDS011;21924;51.934;7.414;2023-12-29T00:35:23;7.78;;;2.85;;
35803;SDS011;21924;51.934;7.414;2023-12-29T00:38:07;10.85;;;3.58;;
35803;SDS011;21924;51.934;7.414;2023-12-29T00:40:51;5.50;;;2.95;;
35803;SDS011;21924;51.934;7.414;2023-12-29T00:43:35;11.68;;;3.50;;
35803;SDS011;21924;51.934;7.414;2023-12-29T00:46:20;7.60;;;3.17;;
35803;SDS011;21924;51.934;7.414;2023-12-29T00:49:04;11.05;;;3.13;;
35803;SDS011;21924;51.934;7.414;2023-12-29T00:51:48;9.93;;;3.10;;
35803;SDS011;21924;51.934;7.414;2023-12-29T00:54:32;13.13;;;3.05;;
35803;SDS011;21924;51.934;7.414;2023-12-29T00:57:16;12.57;;;3.40;;
35803;SDS011;21924;51.934;7.414;2023-12-29T01:00:00;10.02;;;2.85;;
35803;SDS011;21924;51.934;7.414;2023-12-29T01:02:48;10.65;;;3.28;;
35803;SDS011;21924;51.934;7.414;2023-12-29T01:05:32;6.68;;;3.05;;
35803;SDS011;21924;51.934;7.414;2023-12-29T01:08:16;12.68;;;3.88;;
35803;SDS011;21924;51.934;7.414;2023-12-29T01:11:00;8.15;;;3.10;;
35803;SDS011;21924;51.934;7.414;2023-12-29T01:13:44;9.50;;;3.17;;
35803;SDS011;21924;51.934;7.414;2023-12-29T01:16:28;9.85;;;3.80;;
35803;SDS011;21924;51.934;7.414;2023-12-29T01:19:12;13.90;;;3.30;;
35803;SDS011;21924;51.934;7.414;2023-12-29T01:21:57;16.27;;;3.45;;
35803;SDS011;21924;51.934;7.414;2023-12-29T01:24:41;9.50;;;3.42;;
35803;SDS011;21924;51.934;7.414;2023-12-29T01:27:25;17.42;;;3.13;;
35803;SDS011;21924;51.934;7.414;2023-12-29T01:30:10;11.73;;;3.30;;
35803;SDS011;21924;51.934;7.414;2023-12-29T01:32:55;14.57;;;3.58;;
35803;SDS011;21924;51.934;7.414;2023-12-29T01:35:39;9.75;;;3.40;;
35803;SDS011;21924;51.934;7.414;2023-12-29T01:38:23;14.88;;;3.17;;
35803;SDS011;21924;51.934;7.414;2023-12-29T01:41:07;14.57;;;4.07;;
35803;SDS011;21924;51.934;7.414;2023-12-29T01:46:45;5.38;;;2.80;;
35803;SDS011;21924;51.934;7.414;2023-12-29T01:49:30;9.32;;;2.67;;
35803;SDS011;21924;51.934;7.414;2023-12-29T01:52:16;6.68;;;2.58;;
35803;SDS011;21924;51.934;7.414;2023-12-29T01:55:02;8.75;;;2.95;;
35803;SDS011;21924;51.934;7.414;2023-12-29T01:57:46;7.03;;;2.70;;
35803;SDS011;21924;51.934;7.414;2023-12-29T02:00:31;7.63;;;3.38;;
35803;SDS011;21924;51.934;7.414;2023-12-29T02:03:17;10.95;;;4.25;;
35803;SDS011;21924;51.934;7.414;2023-12-29T02:06:01;8.00;;;3.00;;
35803;SDS011;21924;51.934;7.414;2023-12-29T02:08:45;4.70;;;2.70;;
35803;SDS011;21924;51.934;7.414;2023-12-29T02:11:31;14.57;;;3.85;;
35803;SDS011;21924;51.934;7.414;2023-12-29T02:14:15;8.25;;;3.08;;
35803;SDS011;21924;51.934;7.414;2023-12-29T02:17:15;6.80;;;2.70;;
35803;SDS011;21924;51.934;7.414;2023-12-29T02:20:07;7.50;;;3.40;;
35803;SDS011;21924;51.934;7.414;2023-12-29T02:22:52;9.85;;;3.33;;
35803;SDS011;21924;51.934;7.414;2023-12-29T02:25:37;5.32;;;3.03;;
35803;SDS011;21924;51.934;7.414;2023-12-29T02:28:24;6.53;;;3.30;;
35803;SDS011;21924;51.934;7.414;2023-12-29T02:31:13;8.80;;;3.22;;
35803;SDS011;21924;51.934;7.414;2023-12-29T02:34:02;13.75;;;3.40;;
35803;SDS011;21924;51.934;7.414;2023-12-29T02:36:50;10.65;;;3.03;;
35803;SDS011;21924;51.934;7.414;2023-12-29T02:39:35;9.88;;;3.17;;
35803;SDS011;21924;51.934;7.414;2023-12-29T02:42:20;13.35;;;4.32;;
35803;SDS011;21924;51.934;7.414;2023-12-29T02:45:04;7.90;;;3.28;;
35803;SDS011;21924;51.934;7.414;2023-12-29T02:47:48;9.38;;;3.42;;
35803;SDS011;21924;51.934;7.414;2023-12-29T02:50:32;14.77;;;3.38;;
35803;SDS011;21924;51.934;7.414;2023-12-29T02:53:16;13.77;;;3.78;;
35803;SDS011;21924;51.934;7.414;2023-12-29T02:56:01;9.73;;;3.92;;
35803;SDS011;21924;51.934;7.414;2023-12-29T02:58:45;10.48;;;3.78;;
35803;SDS011;21924;51.934;7.414;2023-12-29T03:01:30;12.02;;;3.03;;
35803;SDS011;21924;51.934;7.414;2023-12-29T03:04:14;12.45;;;4.32;;
35803;SDS011;21924;51.934;7.414;2023-12-29T03:06:58;8.50;;;2.78;;
35803;SDS011;21924;51.934;7.414;2023-12-29T03:09:42;8.77;;;3.92;;
35803;SDS011;21924;51.934;7.414;2023-12-29T03:12:27;11.57;;;3.72;;
35803;SDS011;21924;51.934;7.414;2023-12-29T03:15:11;5.55;;;3.30;;
35803;SDS011;21924;51.934;7.414;2023-12-29T03:17:55;14.82;;;4.28;;
35803;SDS011;21924;51.934;7.414;2023-12-29T03:20:39;6.38;;;3.25;;
35803;SDS011;21924;51.934;7.414;2023-12-29T03:23:23;9.32;;;4.40;;
35803;SDS011;21924;51.934;7.414;2023-12-29T03:26:07;7.30;;;3.80;;
35803;SDS011;21924;51.934;7.414;2023-12-29T03:28:51;12.52;;;3.88;;
35803;SDS011;21924;51.934;7.414;2023-12-29T03:31:35;10.63;;;3.80;;
35803;SDS011;21924;51.934;7.414;2023-12-29T03:34:19;11.80;;;4.03;;
35803;SDS011;21924;51.934;7.414;2023-12-29T03:37:03;11.40;;;4.60;;
35803;SDS011;21924;51.934;7.414;2023-12-29T03:39:48;14.60;;;4.43;;
35803;SDS011;21924;51.934;7.414;2023-12-29T03:42:37;9.45;;;4.20;;
35803;SDS011;21924;51.934;7.414;2023-12-29T03:45:24;9.88;;;4.05;;
35803;SDS011;21924;51.934;7.414;2023-12-29T03:48:09;10.07;;;3.95;;
35803;SDS011;21924;51.934;7.414;2023-12-29T03:50:53;10.02;;;4.63;;
35803;SDS011;21924;51.934;7.414;2023-12-29T03:53:37;17.23;;;4.00;;
35803;SDS011;21924;51.934;7.414;2023-12-29T03:56:21;7.53;;;3.40;;
35803;SDS011;21924;51.934;7.414;2023-12-29T03:59:05;13.27;;;3.83;;
35803;SDS011;21924;51.934;7.414;2023-12-29T04:01:49;12.90;;;4.22;;
35803;SDS011;21924;51.934;7.414;2023-12-29T04:04:37;7.30;;;4.05;;
35803;SDS011;21924;51.934;7.414;2023-12-29T04:07:22;11.52;;;4.25;;
35803;SDS011;21924;51.934;7.414;2023-12-29T04:10:06;16.58;;;4.40;;
35803;SDS011;21924;51.934;7.414;2023-12-29T04:12:52;7.72;;;3.80;;
35803;SDS011;21924;51.934;7.414;2023-12-29T04:15:36;19.38;;;4.63;;
35803;SDS011;21924;51.934;7.414;2023-12-29T04:18:21;11.98;;;3.85;;
35803;SDS011;21924;51.934;7.414;2023-12-29T04:21:06;9.10;;;3.70;;
35803;SDS011;21924;51.934;7.414;2023-12-29T04:26:37;15.35;;;4.00;;
35803;SDS011;21924;51.934;7.414;2023-12-29T04:29:21;11.13;;;4.13;;
35803;SDS011;21924;51.934;7.414;2023-12-29T04:32:05;9.82;;;4.07;;
35803;SDS011;21924;51.934;7.414;2023-12-29T04:34:50;18.27;;;3.53;;
35803;SDS011;21924;51.934;7.414;2023-12-29T04:37:34;12.25;;;3.88;;
35803;SDS011;21924;51.934;7.414;2023-12-29T04:40:18;6.30;;;3.47;;
35803;SDS011;21924;51.934;7.414;2023-12-29T04:43:02;15.18;;;4.18;;
35803;SDS011;21924;51.934;7.414;2023-12-29T04:45:47;6.90;;;3.75;;
35803;SDS011;21924;51.934;7.414;2023-12-29T04:48:31;9.65;;;3.40;;
35803;SDS011;21924;51.934;7.414;2023-12-29T04:51:15;14.93;;;3.30;;
35803;SDS011;21924;51.934;7.414;2023-12-29T04:54:00;14.35;;;3.47;;
35803;SDS011;21924;51.934;7.414;2023-12-29T04:56:44;15.52;;;3.70;;
35803;SDS011;21924;51.934;7.414;2023-12-29T04:59:28;8.30;;;3.25;;
35803;SDS011;21924;51.934;7.414;2023-12-29T05:02:12;10.57;;;3.63;;
35803;SDS011;21924;51.934;7.414;2023-12-29T05:04:56;7.38;;;3.33;;
35803;SDS011;21924;51.934;7.414;2023-12-29T05:07:40;8.38;;;3.45;;
35803;SDS011;21924;51.934;7.414;2023-12-29T05:10:24;11.07;;;3.35;;
35803;SDS011;21924;51.934;7.414;2023-12-29T05:13:08;13.32;;;3.65;;
35803;SDS011;21924;51.934;7.414;2023-12-29T05:15:52;17.20;;;4.03;;
35803;SDS011;21924;51.934;7.414;2023-12-29T05:18:36;8.32;;;2.88;;
35803;SDS011;21924;51.934;7.414;2023-12-29T05:21:20;5.90;;;3.10;;
35803;SDS011;21924;51.934;7.414;2023-12-29T05:24:05;20.15;;;3.83;;
35803;SDS011;21924;51.934;7.414;2023-12-29T05:26:50;11.60;;;3.50;;
35803;SDS011;21924;51.934;7.414;2023-12-29T05:29:33;18.38;;;3.83;;
35803;SDS011;21924;51.934;7.414;2023-12-29T05:32:18;6.07;;;2.70;;
35803;SDS011;21924;51.934;7.414;2023-12-29T05:35:02;12.77;;;4.13;;
35803;SDS011;21924;51.934;7.414;2023-12-29T05:37:46;16.85;;;3.67;;
35803;SDS011;21924;51.934;7.414;2023-12-29T05:40:30;9.05;;;2.97;;
35803;SDS011;21924;51.934;7.414;2023-12-29T05:43:15;11.73;;;3.47;;
35803;SDS011;21924;51.934;7.414;2023-12-29T05:46:00;14.93;;;3.60;;
35803;SDS011;21924;51.934;7.414;2023-12-29T05:48:46;9.82;;;3.13;;
35803;SDS011;21924;51.934;7.414;2023-12-29T05:51:30;7.50;;;3.33;;
35803;SDS011;21924;51.934;7.414;2023-12-29T05:54:14;8.90;;;3.08;;
35803;SDS011;21924;51.934;7.414;2023-12-29T05:56:58;8.68;;;2.92;;
35803;SDS011;21924;51.934;7.414;2023-12-29T05:59:42;7.70;;;2.97;;
35803;SDS011;21924;51.934;7.414;2023-12-29T06:02:26;9.57;;;2.70;;
35803;SDS011;21924;51.934;7.414;2023-12-29T06:05:10;10.60;;;3.65;;
35803;SDS011;21924;51.934;7.414;2023-12-29T06:07:56;9.23;;;3.20;;
35803;SDS011;21924;51.934;7.414;2023-12-29T06:10:40;9.07;;;3.38;;
35803;SDS011;21924;51.934;7.414;2023-12-29T06:13:24;12.70;;;3.47;;
35803;SDS011;21924;51.934;7.414;2023-12-29T06:16:08;9.70;;;3.08;;
35803;SDS011;21924;51.934;7.414;2023-12-29T06:18:52;6.60;;;2.63;;
35803;SDS011;21924;51.934;7.414;2023-12-29T06:21:40;5.05;;;2.85;;
35803;SDS011;21924;51.934;7.414;2023-12-29T06:24:26;10.32;;;3.00;;
35803;SDS011;21924;51.934;7.414;2023-12-29T06:27:11;7.03;;;2.63;;
35803;SDS011;21924;51.934;7.414;2023-12-29T06:29:55;10.13;;;3.15;;
35803;SDS011;21924;51.934;7.414;2023-12-29T06:32:40;17.52;;;2.90;;
35803;SDS011;21924;51.934;7.414;2023-12-29T06:35:25;11.48;;;2.95;;
35803;SDS011;21924;51.934;7.414;2023-12-29T06:38:09;7.97;;;2.55;;
35803;SDS011;21924;51.934;7.414;2023-12-29T06:40:53;14.52;;;3.33;;
35803;SDS011;21924;51.934;7.414;2023-12-29T06:43:37;7.95;;;2.60;;
35803;SDS011;21924;51.934;7.414;2023-12-29T06:46:21;10.20;;;3.13;;
35803;SDS011;21924;51.934;7.414;2023-12-29T06:49:09;10.45;;;3.22;;
35803;SDS011;21924;51.934;7.414;2023-12-29T06:51:53;8.38;;;3.13;;
35803;SDS011;21924;51.934;7.414;2023-12-29T07:02:01;13.13;;;2.83;;
35803;SDS011;21924;51.934;7.414;2023-12-29T07:04:45;12.52;;;3.08;;
35803;SDS011;21924;51.934;7.414;2023-12-29T07:07:29;11.02;;;2.60;;
35803;SDS011;21924;51.934;7.414;2023-12-29T07:10:14;11.32;;;2.58;;
35803;SDS011;21924;51.934;7.414;2023-12-29T07:12:58;5.55;;;2.78;;
35803;SDS011;21924;51.934;7.414;2023-12-29T07:15:42;11.65;;;3.13;;
35803;SDS011;21924;51.934;7.414;2023-12-29T07:18:41;7.57;;;2.75;;
35803;SDS011;21924;51.934;7.414;2023-12-29T07:21:30;11.32;;;3.58;;
35803;SDS011;21924;51.934;7.414;2023-12-29T07:24:14;8.43;;;2.97;;
35803;SDS011;21924;51.934;7.414;2023-12-29T07:26:58;13.43;;;3.28;;
35803;SDS011;21924;51.934;7.414;2023-12-29T07:29:45;7.13;;;2.83;;
35803;SDS011;21924;51.934;7.414;2023-12-29T07:32:29;7.05;;;2.67;;
35803;SDS011;21924;51.934;7.414;2023-12-29T07:35:13;10.43;;;2.60;;
35803;SDS011;21924;51.934;7.414;2023-12-29T07:38:03;9.85;;;3.35;;
35803;SDS011;21924;51.934;7.414;2023-12-29T07:40:47;11.93;;;3.47;;
35803;SDS011;21924;51.934;7.414;2023-12-29T07:43:31;8.50;;;3.28;;
35803;SDS011;21924;51.934;7.414;2023-12-29T07:46:25;19.80;;;3.15;;
35803;SDS011;21924;51.934;7.414;2023-12-29T07:49:10;11.45;;;2.97;;
35803;SDS011;21924;51.934;7.414;2023-12-29T07:51:54;11.43;;;3.47;;
35803;SDS011;21924;51.934;7.414;2023-12-29T07:54:42;11.18;;;3.55;;
35803;SDS011;21924;51.934;7.414;2023-12-29T07:57:26;10.90;;;3.85;;
35803;SDS011;21924;51.934;7.414;2023-12-29T08:00:11;12.80;;;3.05;;
35803;SDS011;21924;51.934;7.414;2023-12-29T08:02:56;7.53;;;2.92;;
35803;SDS011;21924;51.934;7.414;2023-12-29T08:05:43;6.20;;;2.67;;
35803;SDS011;21924;51.934;7.414;2023-12-29T08:08:30;8.45;;;3.42;;
35803;SDS011;21924;51.934;7.414;2023-12-29T08:11:17;17.55;;;4.43;;
35803;SDS011;21924;51.934;7.414;2023-12-29T08:14:01;14.88;;;3.58;;
35803;SDS011;21924;51.934;7.414;2023-12-29T08:16:45;19.20;;;3.38;;
35803;SDS011;21924;51.934;7.414;2023-12-29T08:19:30;13.27;;;3.25;;
35803;SDS011;21924;51.934;7.414;2023-12-29T08:22:14;10.25;;;3.00;;
35803;SDS011;21924;51.934;7.414;2023-12-29T08:24:58;11.85;;;3.60;;
35803;SDS011;21924;51.934;7.414;2023-12-29T08:27:42;8.80;;;3.10;;
35803;SDS011;21924;51.934;7.414;2023-12-29T08:30:27;10.90;;;3.28;;
35803;SDS011;21924;51.934;7.414;2023-12-29T08:33:11;8.95;;;3.58;;
35803;SDS011;21924;51.934;7.414;2023-12-29T08:35:57;12.45;;;3.03;;
35803;SDS011;21924;51.934;7.414;2023-12-29T08:38:44;10.55;;;3.20;;
35803;SDS011;21924;51.934;7.414;2023-12-29T08:41:28;15.40;;;3.30;;
35803;SDS011;21924;51.934;7.414;2023-12-29T08:44:14;18.88;;;3.38;;
35803;SDS011;21924;51.934;7.414;2023-12-29T08:46:59;7.22;;;3.17;;
35803;SDS011;21924;51.934;7.414;2023-12-29T08:49:43;8.35;;;2.83;;
35803;SDS011;21924;51.934;7.414;2023-12-29T08:52:27;8.90;;;3.08;;
35803;SDS011;21924;51.934;7.414;2023-12-29T08:55:12;10.68;;;3.15;;
35803;SDS011;21924;51.934;7.414;2023-12-29T08:57:56;8.85;;;3.42;;
35803;SDS011;21924;51.934;7.414;2023-12-29T09:00:41;5.38;;;3.22;;
35803;SDS011;21924;51.934;7.414;2023-12-29T09:03:25;11.38;;;3.67;;
35803;SDS011;21924;51.934;7.414;2023-12-29T09:06:09;9.90;;;3.40;;
35803;SDS011;21924;51.934;7.414;2023-12-29T09:08:53;11.95;;;3.55;;
35803;SDS011;21924;51.934;7.414;2023-12-29T09:11:37;12.60;;;3.58;;
35803;SDS011;21924;51.934;7.414;2023-12-29T09:14:23;14.52;;;3.47;;
35803;SDS011;21924;51.934;7.414;2023-12-29T09:17:07;10.18;;;3.40;;
35803;SDS011;21924;51.934;7.414;2023-12-29T09:19:51;9.43;;;3.65;;
35803;SDS011;21924;51.934;7.414;2023-12-29T09:22:36;20.98;;;4.00;;
35803;SDS011;21924;51.934;7.414;2023-12-29T09:25:20;8.55;;;3.63;;
35803;SDS011;21924;51.934;7.414;2023-12-29T09:28:04;7.63;;;3.03;;
35803;SDS011;21924;51.934;7.414;2023-12-29T09:30:48;4.43;;;3.38;;
35803;SDS011;21924;51.934;7.414;2023-12-29T09:33:32;9.23;;;3.30;;
35803;SDS011;21924;51.934;7.414;2023-12-29T09:36:16;8.90;;;2.95;;
35803;SDS011;21924;51.934;7.414;2023-12-29T09:39:00;6.43;;;3.30;;
35803;SDS011;21924;51.934;7.414;2023-12-29T09:41:46;11.98;;;3.40;;
35803;SDS011;21924;51.934;7.414;2023-12-29T09:44:31;8.82;;;3.20;;
35803;SDS011;21924;51.934;7.414;2023-12-29T09:47:16;12.10;;;3.15;;
35803;SDS011;21924;51.934;7.414;2023-12-29T09:50:07;7.22;;;2.72;;
35803;SDS011;21924;51.934;7.414;2023-12-29T09:52:54;8.15;;;2.97;;
35803;SDS011;21924;51.934;7.414;2023-12-29T09:55:40;4.97;;;2.72;;
35803;SDS011;21924;51.934;7.414;2023-12-29T09:58:25;4.80;;;2.35;;
35803;SDS011;21924;51.934;7.414;2023-12-29T10:01:10;4.30;;;2.42;;
35803;SDS011;21924;51.934;7.414;2023-12-29T10:03:54;7.80;;;2.25;;
35803;SDS011;21924;51.934;7.414;2023-12-29T10:06:39;5.05;;;2.20;;
35803;SDS011;21924;51.934;7.414;2023-12-29T10:09:27;8.27;;;2.72;;
35803;SDS011;21924;51.934;7.414;2023-12-29T10:12:12;5.38;;;2.03;;
35803;SDS011;21924;51.934;7.414;2023-12-29T10:21:27;3.65;;;2.55;;
35803;SDS011;21924;51.934;7.414;2023-12-29T10:24:17;5.13;;;2.38;;
35803;SDS011;21924;51.934;7.414;2023-12-29T10:27:04;6.65;;;2.08;;
35803;SDS011;21924;51.934;7.414;2023-12-29T10:29:48;3.55;;;1.90;;
35803;SDS011;21924;51.934;7.414;2023-12-29T10:32:32;3.92;;;2.72;;
35803;SDS011;21924;51.934;7.414;2023-12-29T10:35:16;5.55;;;2.15;;
35803;SDS011;21924;51.934;7.414;2023-12-29T10:38:11;2.10;;;1.95;;
35803;SDS011;21924;51.934;7.414;2023-12-29T10:41:12;5.72;;;2.08;;
35803;SDS011;21924;51.934;7.414;2023-12-29T10:43:59;6.43;;;2.00;;
35803;SDS011;21924;51.934;7.414;2023-12-29T10:46:50;5.68;;;2.03;;
35803;SDS011;21924;51.934;7.414;2023-12-29T10:56:05;2.22;;;1.75;;
35803;SDS011;21924;51.934;7.414;2023-12-29T10:59:01;2.10;;;1.90;;
35803;SDS011;21924;51.934;7.414;2023-12-29T11:01:46;4.85;;;1.58;;
35803;SDS011;21924;51.934;7.414;2023-12-29T11:04:33;3.83;;;1.80;;
35803;SDS011;21924;51.934;7.414;2023-12-29T11:07:40;3.42;;;1.98;;
35803;SDS011;21924;51.934;7.414;2023-12-29T11:10:24;3.30;;;1.90;;
35803;SDS011;21924;51.934;7.414;2023-12-29T11:17:06;2.35;;;2.10;;
35803;SDS011;21924;51.934;7.414;2023-12-29T11:19:52;3.53;;;1.48;;
35803;SDS011;21924;51.934;7.414;2023-12-29T11:22:37;1.80;;;1.70;;
35803;SDS011;21924;51.934;7.414;2023-12-29T11:25:22;2.28;;;1.55;;
35803;SDS011;21924;51.934;7.414;2023-12-29T11:28:06;2.90;;;2.03;;
35803;SDS011;21924;51.934;7.414;2023-12-29T11:30:54;1.70;;;1.60;;
35803;SDS011;21924;51.934;7.414;2023-12-29T11:33:40;1.90;;;1.60;;
35803;SDS011;21924;51.934;7.414;2023-12-29T11:36:31;2.40;;;1.75;;
35803;SDS011;21924;51.934;7.414;2023-12-29T11:39:31;1.73;;;1.63;;
35803;SDS011;21924;51.934;7.414;2023-12-29T11:42:28;1.70;;;1.60;;
35803;SDS011;21924;51.934;7.414;2023-12-29T11:45:23;1.88;;;1.77;;
35803;SDS011;21924;51.934;7.414;2023-12-29T11:48:12;5.15;;;1.88;;
35803;SDS011;21924;51.934;7.414;2023-12-29T11:51:28;3.75;;;1.88;;
35803;SDS011;21924;51.934;7.414;2023-12-29T11:54:20;1.95;;;1.60;;
35803;SDS011;21924;51.934;7.414;2023-12-29T11:57:14;2.83;;;2.00;;
35803;SDS011;21924;51.934;7.414;2023-12-29T12:00:15;3.33;;;1.90;;
35803;SDS011;21924;51.934;7.414;2023-12-29T12:03:00;5.15;;;2.13;;
35803;SDS011;21924;51.934;7.414;2023-12-29T12:05:56;9.35;;;1.70;;
35803;SDS011;21924;51.934;7.414;2023-12-29T12:08:42;2.67;;;1.60;;
35803;SDS011;21924;51.934;7.414;2023-12-29T12:14:41;2.63;;;2.22;;
35803;SDS011;21924;51.934;7.414;2023-12-29T12:17:30;2.78;;;2.13;;
35803;SDS011;21924;51.934;7.414;2023-12-29T12:20:16;1.80;;;1.70;;
35803;SDS011;21924;51.934;7.414;2023-12-29T12:23:09;3.25;;;1.92;;
35803;SDS011;21924;51.934;7.414;2023-12-29T12:25:58;2.75;;;1.77;;
35803;SDS011;21924;51.934;7.414;2023-12-29T12:28:44;3.55;;;2.50;;
35803;SDS011;21924;51.934;7.414;2023-12-29T12:31:29;2.78;;;2.30;;
35803;SDS011;21924;51.934;7.414;2023-12-29T12:34:13;3.75;;;2.00;;
35803;SDS011;21924;51.934;7.414;2023-12-29T12:36:58;2.70;;;2.17;;
35803;SDS011;21924;51.934;7.414;2023-12-29T12:39:46;7.50;;;2.35;;
35803;SDS011;21924;51.934;7.414;2023-12-29T12:42:30;5.05;;;2.22;;
35803;SDS011;21924;51.934;7.414;2023-12-29T12:45:16;3.53;;;2.15;;
35803;SDS011;21924;51.934;7.414;2023-12-29T12:48:13;8.23;;;2.58;;
35803;SDS011;21924;51.934;7.414;2023-12-29T12:54:04;6.10;;;2.40;;
35803;SDS011;21924;51.934;7.414;2023-12-29T12:56:49;5.20;;;2.30;;
35803;SDS011;21924;51.934;7.414;2023-12-29T12:59:35;14.40;;;2.60;;
35803;SDS011;21924;51.934;7.414;2023-12-29T13:02:19;3.80;;;1.70;;
35803;SDS011;21924;51.934;7.414;2023-12-29T13:05:05;2.65;;;2.28;;
35803;SDS011;21924;51.934;7.414;2023-12-29T13:10:41;2.65;;;2.30;;
35803;SDS011;21924;51.934;7.414;2023-12-29T13:13:39;6.88;;;2.30;;
35803;SDS011;21924;51.934;7.414;2023-12-29T13:16:29;6.75;;;2.60;;
35803;SDS011;21924;51.934;7.414;2023-12-29T13:19:23;6.90;;;2.17;;
35803;SDS011;21924;51.934;7.414;2023-12-29T13:22:08;3.22;;;2.25;;
35803;SDS011;21924;51.934;7.414;2023-12-29T13:24:58;6.43;;;2.35;;
35803;SDS011;21924;51.934;7.414;2023-12-29T13:27:58;8.45;;;2.58;;
35803;SDS011;21924;51.934;7.414;2023-12-29T13:38:29;4.85;;;2.80;;
35803;SDS011;21924;51.934;7.414;2023-12-29T13:42:00;2.83;;;2.30;;
35803;SDS011;21924;51.934;7.414;2023-12-29T13:55:49;6.72;;;2.38;;
35803;SDS011;21924;51.934;7.414;2023-12-29T14:06:00;6.15;;;2.00;;
35803;SDS011;21924;51.934;7.414;2023-12-29T14:13:29;5.13;;;2.17;;
35803;SDS011;21924;51.934;7.414;2023-12-29T14:16:37;15.15;;;2.38;;
35803;SDS011;21924;51.934;7.414;2023-12-29T14:20:32;5.53;;;2.55;;
35803;SDS011;21924;51.934;7.414;2023-12-29T14:23:30;3.67;;;2.50;;
35803;SDS011;21924;51.934;7.414;2023-12-29T14:26:33;5.22;;;2.22;;
35803;SDS011;21924;51.934;7.414;2023-12-29T14:29:18;2.05;;;1.92;;
35803;SDS011;21924;51.934;7.414;2023-12-29T14:32:09;2.67;;;1.95;;
35803;SDS011;21924;51.934;7.414;2023-12-29T14:35:31;10.98;;;2.40;;
35803;SDS011;21924;51.934;7.414;2023-12-29T14:38:17;4.75;;;2.40;;
35803;SDS011;21924;51.934;7.414;2023-12-29T14:41:31;6.07;;;2.40;;
35803;SDS011;21924;51.934;7.414;2023-12-29T14:44:31;4.43;;;2.20;;
35803;SDS011;21924;51.934;7.414;2023-12-29T14:51:15;4.70;;;2.13;;
35803;SDS011;21924;51.934;7.414;2023-12-29T14:54:07;1.90;;;1.70;;
35803;SDS011;21924;51.934;7.414;2023-12-29T14:56:53;3.03;;;1.90;;
35803;SDS011;21924;51.934;7.414;2023-12-29T14:59:39;8.05;;;1.90;;
35803;SDS011;21924;51.934;7.414;2023-12-29T15:02:24;3.42;;;2.20;;
35803;SDS011;21924;51.934;7.414;2023-12-29T15:05:14;6.88;;;2.00;;
35803;SDS011;21924;51.934;7.414;2023-12-29T15:12:07;2.08;;;1.98;;
35803;SDS011;21924;51.934;7.414;2023-12-29T15:15:04;2.25;;;2.03;;
35803;SDS011;21924;51.934;7.414;2023-12-29T15:18:04;2.65;;;2.08;;
35803;SDS011;21924;51.934;7.414;2023-12-29T15:20:48;2.95;;;1.98;;
35803;SDS011;21924;51.934;7.414;2023-12-29T15:23:34;1.92;;;1.83;;
35803;SDS011;21924;51.934;7.414;2023-12-29T15:26:18;7.50;;;2.22;;
35803;SDS011;21924;51.934;7.414;2023-12-29T15:29:04;4.13;;;2.33;;
35803;SDS011;21924;51.934;7.414;2023-12-29T15:31:49;2.85;;;2.20;;
35803;SDS011;21924;51.934;7.414;2023-12-29T15:34:52;2.65;;;2.13;;
35803;SDS011;21924;51.934;7.414;2023-12-29T15:37:36;3.03;;;2.47;;
35803;SDS011;21924;51.934;7.414;2023-12-29T15:40:29;6.95;;;3.10;;
35803;SDS011;21924;51.934;7.414;2023-12-29T15:58:00;9.27;;;2.90;;
35803;SDS011;21924;51.934;7.414;2023-12-29T16:00:58;6.13;;;3.03;;
35803;SDS011;21924;51.934;7.414;2023-12-29T16:07:10;9.95;;;3.00;;
35803;SDS011;21924;51.934;7.414;2023-12-29T16:13:43;6.95;;;2.65;;
35803;SDS011;21924;51.934;7.414;2023-12-29T16:19:41;3.38;;;3.05;;
35803;SDS011;21924;51.934;7.414;2023-12-29T16:37:13;3.72;;;2.47;;
35803;SDS011;21924;51.934;7.414;2023-12-29T16:40:04;4.95;;;2.50;;
35803;SDS011;21924;51.934;7.414;2023-12-29T16:42:49;5.20;;;2.92;;
35803;SDS011;21924;51.934;7.414;2023-12-29T16:45:41;4.53;;;2.67;;
35803;SDS011;21924;51.934;7.414;2023-12-29T16:48:26;2.92;;;2.40;;
35803;SDS011;21924;51.934;7.414;2023-12-29T16:51:10;5.15;;;2.55;;
35803;SDS011;21924;51.934;7.414;2023-12-29T16:54:00;3.38;;;2.05;;
35803;SDS011;21924;51.934;7.414;2023-12-29T16:56:48;4.85;;;3.10;;
35803;SDS011;21924;51.934;7.414;2023-12-29T16:59:33;4.85;;;2.15;;
35803;SDS011;21924;51.934;7.414;2023-12-29T17:02:17;4.57;;;2.40;;
35803;SDS011;21924;51.934;7.414;2023-12-29T17:07:48;3.47;;;2.53;;
35803;SDS011;21924;51.934;7.414;2023-12-29T17:10:32;2.58;;;2.38;;
35803;SDS011;21924;51.934;7.414;2023-12-29T17:13:17;6.57;;;3.10;;
35803;SDS011;21924;51.934;7.414;2023-12-29T17:16:02;8.25;;;3.30;;
35803;SDS011;21924;51.934;7.414;2023-12-29T17:18:47;24.13;;;8.73;;
35803;SDS011;21924;51.934;7.414;2023-12-29T17:21:31;5.85;;;3.80;;
35803;SDS011;21924;51.934;7.414;2023-12-29T17:24:15;17.75;;;5.00;;
35803;SDS011;21924;51.934;7.414;2023-12-29T17:27:03;7.68;;;3.08;;
35803;SDS011;21924;51.934;7.414;2023-12-29T17:29:52;8.20;;;3.10;;
35803;SDS011;21924;51.934;7.414;2023-12-29T17:32:36;10.90;;;4.15;;
35803;SDS011;21924;51.934;7.414;2023-12-29T17:35:21;3.53;;;3.20;;
35803;SDS011;21924;51.934;7.414;2023-12-29T17:38:08;33.45;;;16.42;;
35803;SDS011;21924;51.934;7.414;2023-12-29T17:40:53;24.98;;;12.05;;
35803;SDS011;21924;51.934;7.414;2023-12-29T17:43:42;9.77;;;4.45;;
35803;SDS011;21924;51.934;7.414;2023-12-29T17:46:42;9.85;;;5.10;;
35803;SDS011;21924;51.934;7.414;2023-12-29T17:49:26;8.52;;;4.32;;
35803;SDS011;21924;51.934;7.414;2023-12-29T17:52:17;6.72;;;5.10;;
35803;SDS011;21924;51.934;7.414;2023-12-29T17:55:38;10.43;;;4.60;;
35803;SDS011;21924;51.934;7.414;2023-12-29T17:58:25;10.32;;;3.78;;
35803;SDS011;21924;51.934;7.414;2023-12-29T18:01:12;19.67;;;7.18;;
35803;SDS011;21924;51.934;7.414;2023-12-29T18:03:58;19.13;;;7.53;;
35803;SDS011;21924;51.934;7.414;2023-12-29T18:06:42;16.17;;;7.32;;
35803;SDS011;21924;51.934;7.414;2023-12-29T18:09:27;14.50;;;7.60;;
35803;SDS011;21924;51.934;7.414;2023-12-29T18:12:12;17.33;;;6.03;;
35803;SDS011;21924;51.934;7.414;2023-12-29T18:14:56;34.80;;;12.95;;
35803;SDS011;21924;51.934;7.414;2023-12-29T18:17:40;37.00;;;14.77;;
35803;SDS011;21924;51.934;7.414;2023-12-29T18:20:30;40.22;;;16.90;;
35803;SDS011;21924;51.934;7.414;2023-12-29T18:23:15;26.40;;;11.13;;
35803;SDS011;21924;51.934;7.414;2023-12-29T18:26:02;27.27;;;12.23;;
35803;SDS011;21924;51.934;7.414;2023-12-29T18:28:47;21.23;;;8.77;;
35803;SDS011;21924;51.934;7.414;2023-12-29T18:31:31;8.15;;;5.57;;
35803;SDS011;21924;51.934;7.414;2023-12-29T18:34:15;12.30;;;5.78;;
35803;SDS011;21924;51.934;7.414;2023-12-29T18:37:00;7.93;;;5.63;;
35803;SDS011;21924;51.934;7.414;2023-12-29T18:39:45;9.68;;;5.05;;
35803;SDS011;21924;51.934;7.414;2023-12-29T18:42:33;10.60;;;3.85;;